createdAt,value
2023-03-02T00:01:54.225Z,4.34
2023-03-02T00:04:33.263Z,3.97
2023-03-02T00:07:04.169Z,3.81
2023-03-02T00:09:33.422Z,3.80
2023-03-02T00:12:01.497Z,3.99
2023-03-02T00:14:29.136Z,3.89
2023-03-02T00:16:57.012Z,3.44
2023-03-02T00:19:24.978Z,3.08
2023-03-02T00:21:52.627Z,3.68
2023-03-02T00:24:20.571Z,3.94
2023-03-02T00:26:48.355Z,3.86
2023-03-02T00:29:15.999Z,3.96
2023-03-02T00:31:44.122Z,3.86
2023-03-02T00:34:11.829Z,3.92
2023-03-02T00:36:40.046Z,3.46
2023-03-02T00:39:08.596Z,3.42
2023-03-02T00:41:37.783Z,3.22
2023-03-02T00:44:05.701Z,3.20
2023-03-02T00:46:33.917Z,3.38
2023-03-02T00:49:02.021Z,3.27
2023-03-02T00:51:29.854Z,3.40
2023-03-02T00:53:57.781Z,3.07
2023-03-02T00:56:25.291Z,3.07
2023-03-02T00:58:53.041Z,3.58
2023-03-02T01:01:21.116Z,3.20
2023-03-02T01:03:49.076Z,3.20
2023-03-02T01:06:19.279Z,3.21
2023-03-02T01:08:47.623Z,3.08
2023-03-02T01:11:17.561Z,2.99
2023-03-02T01:13:46.072Z,2.97
2023-03-02T01:16:14.593Z,2.96
2023-03-02T01:18:43.008Z,3.20
2023-03-02T01:21:15.645Z,3.24
2023-03-02T01:23:43.727Z,2.99
2023-03-02T01:26:11.389Z,2.99
2023-03-02T01:28:39.123Z,3.20
2023-03-02T01:31:07.279Z,3.18
2023-03-02T01:33:34.909Z,3.23
2023-03-02T01:36:02.750Z,2.82
2023-03-02T01:38:30.779Z,2.97
2023-03-02T01:40:58.795Z,3.06
2023-03-02T01:43:26.576Z,3.21
2023-03-02T01:45:59.095Z,2.96
2023-03-02T01:48:48.039Z,2.91
2023-03-02T01:51:23.229Z,2.91
2023-03-02T01:53:55.618Z,2.94
2023-03-02T01:56:31.499Z,2.94
2023-03-02T01:59:03.670Z,2.89
2023-03-02T02:01:34.573Z,2.50
2023-03-02T02:04:02.926Z,2.69
2023-03-02T02:07:03.409Z,2.98
2023-03-02T02:09:35.419Z,2.85
2023-03-02T02:12:03.687Z,3.04
2023-03-02T02:14:31.816Z,2.99
2023-03-02T02:16:59.668Z,2.98
2023-03-02T02:19:42.460Z,3.02
2023-03-02T02:22:12.055Z,2.99
2023-03-02T02:24:52.489Z,2.67
2023-03-02T02:27:20.496Z,2.56
2023-03-02T02:29:52.629Z,2.49
2023-03-02T02:32:30.817Z,2.77
2023-03-02T02:35:05.177Z,2.76
2023-03-02T02:37:38.640Z,2.71
2023-03-02T02:40:12.567Z,2.64
2023-03-02T02:42:48.618Z,2.24
2023-03-02T02:45:21.223Z,2.39
2023-03-02T02:47:50.159Z,2.35
2023-03-02T02:50:32.265Z,2.55
2023-03-02T02:53:20.405Z,2.34
2023-03-02T02:55:52.043Z,2.47
2023-03-02T02:58:56.701Z,2.22
2023-03-02T03:01:26.298Z,2.30
2023-03-02T03:04:02.286Z,2.17
2023-03-02T03:06:42.403Z,2.08
2023-03-02T03:09:12.479Z,2.38
2023-03-02T03:11:43.714Z,2.34
2023-03-02T03:14:15.455Z,2.25
2023-03-02T03:16:46.520Z,2.30
2023-03-02T03:19:18.387Z,1.98
2023-03-02T03:21:49.739Z,2.21
2023-03-02T03:24:18.643Z,2.32
2023-03-02T03:26:46.798Z,2.19
2023-03-02T03:29:15.792Z,2.34
2023-03-02T03:31:44.490Z,2.19
2023-03-02T03:34:12.406Z,2.39
2023-03-02T03:36:40.152Z,2.38
2023-03-02T03:39:08.204Z,2.15
2023-03-02T03:41:36.317Z,2.32
2023-03-02T03:44:04.419Z,2.16
2023-03-02T03:46:34.424Z,2.18
2023-03-02T03:49:03.500Z,2.23
2023-03-02T03:51:35.393Z,2.21
2023-03-02T03:54:05.575Z,2.12
2023-03-02T03:56:36.932Z,2.11
2023-03-02T03:59:07.509Z,2.06
2023-03-02T04:01:41.877Z,2.18
2023-03-02T04:04:17.247Z,2.06
2023-03-02T04:06:45.072Z,1.89
2023-03-02T04:09:15.440Z,1.86
2023-03-02T04:11:45.135Z,2.03
2023-03-02T04:14:14.273Z,1.91
2023-03-02T04:16:42.091Z,1.89
2023-03-02T04:19:10.493Z,2.02
2023-03-02T04:21:41.615Z,2.21
2023-03-02T04:24:10.111Z,2.24
2023-03-02T04:26:40.570Z,2.25
2023-03-02T04:29:09.418Z,1.81
2023-03-02T04:31:38.063Z,1.94
2023-03-02T04:34:07.940Z,1.99
2023-03-02T04:36:39.022Z,2.11
2023-03-02T04:39:07.913Z,2.08
2023-03-02T04:41:35.974Z,2.04
2023-03-02T04:44:03.683Z,2.01
2023-03-02T04:46:32.090Z,2.15
2023-03-02T04:49:00.083Z,2.12
2023-03-02T04:51:38.418Z,1.97
2023-03-02T04:54:11.627Z,2.33
2023-03-02T04:56:39.239Z,2.38
2023-03-02T04:59:07.369Z,2.67
2023-03-02T05:01:35.069Z,2.71
2023-03-02T05:04:03.203Z,2.43
2023-03-02T05:06:31.414Z,2.91
2023-03-02T05:09:00.231Z,2.60
2023-03-02T05:11:28.426Z,2.73
2023-03-02T05:13:59.489Z,2.58
2023-03-02T05:16:29.450Z,2.64
2023-03-02T05:18:58.943Z,2.76
2023-03-02T05:21:27.247Z,2.82
2023-03-02T05:23:55.014Z,3.02
2023-03-02T05:26:23.509Z,3.07
2023-03-02T05:28:53.891Z,3.12
2023-03-02T05:31:28.643Z,3.01
2023-03-02T05:33:56.602Z,3.16
2023-03-02T05:36:24.215Z,3.53
2023-03-02T05:38:51.937Z,3.52
2023-03-02T05:41:20.003Z,3.56
2023-03-02T05:43:47.802Z,3.38
2023-03-02T05:46:17.376Z,3.47
2023-03-02T05:48:46.599Z,3.74
2023-03-02T05:51:14.196Z,3.69
2023-03-02T05:53:41.890Z,3.73
2023-03-02T05:56:10.094Z,3.43
2023-03-02T05:58:37.935Z,3.51
2023-03-02T06:01:13.558Z,3.39
2023-03-02T06:03:43.747Z,3.37
2023-03-02T06:06:15.206Z,3.43
2023-03-02T06:08:44.487Z,3.02
2023-03-02T06:11:12.797Z,2.89
2023-03-02T06:13:40.603Z,2.83
2023-03-02T06:16:09.108Z,3.04
2023-03-02T06:18:39.745Z,3.02
2023-03-02T06:21:09.360Z,2.83
2023-03-02T06:23:37.018Z,2.92
2023-03-02T06:26:10.024Z,2.82
2023-03-02T06:28:51.347Z,2.90
2023-03-02T06:31:21.387Z,2.83
2023-03-02T06:33:49.859Z,2.95
2023-03-02T06:36:17.956Z,3.09
2023-03-02T06:38:45.891Z,3.39
2023-03-02T06:41:13.796Z,3.39
2023-03-02T06:43:41.604Z,3.57
2023-03-02T06:46:09.351Z,3.63
2023-03-02T06:48:40.133Z,4.06
2023-03-02T06:51:08.375Z,4.25
2023-03-02T06:53:36.116Z,4.08
2023-03-02T06:56:04.430Z,4.04
2023-03-02T06:58:32.196Z,4.25
2023-03-02T07:01:00.047Z,4.33
2023-03-02T07:03:28.063Z,4.23
2023-03-02T07:05:55.891Z,4.59
2023-03-02T07:08:24.044Z,4.73
2023-03-02T07:10:52.006Z,4.58
2023-03-02T07:13:20.088Z,4.83
2023-03-02T07:15:48.046Z,4.77
2023-03-02T07:18:16.126Z,5.07
2023-03-02T07:20:44.464Z,5.25
2023-03-02T07:23:12.360Z,5.23
2023-03-02T07:25:40.230Z,5.53
2023-03-02T07:28:07.896Z,5.71
2023-03-02T07:30:35.691Z,5.64
2023-03-02T07:33:03.651Z,5.99
2023-03-02T07:35:31.253Z,5.91
2023-03-02T07:37:58.871Z,6.10
2023-03-02T07:40:27.088Z,6.09
2023-03-02T07:42:54.670Z,6.46
2023-03-02T07:45:24.941Z,6.56
2023-03-02T07:47:53.047Z,6.73
2023-03-02T07:50:21.159Z,6.67
2023-03-02T07:52:48.838Z,7.28
2023-03-02T07:55:16.909Z,7.33
2023-03-02T07:57:44.668Z,7.20
2023-03-02T08:00:13.045Z,7.48
2023-03-02T08:02:42.630Z,7.53
2023-03-02T08:05:12.242Z,7.71
2023-03-02T08:07:44.053Z,8.03
2023-03-02T08:10:12.450Z,8.10
2023-03-02T08:12:45.562Z,8.33
2023-03-02T08:15:13.465Z,8.42
2023-03-02T08:17:41.098Z,8.71
2023-03-02T08:20:12.124Z,8.61
2023-03-02T08:22:41.960Z,8.86
2023-03-02T08:25:09.788Z,9.04
2023-03-02T08:27:40.260Z,8.80
2023-03-02T08:30:10.959Z,9.32
2023-03-02T08:32:45.734Z,8.93
2023-03-02T08:35:13.709Z,8.89
2023-03-02T08:37:41.269Z,8.74
2023-03-02T08:40:12.747Z,9.09
2023-03-02T08:42:42.988Z,8.94
2023-03-02T08:45:10.780Z,9.29
2023-03-02T08:47:38.436Z,9.48
2023-03-02T08:50:09.613Z,9.41
2023-03-02T08:52:37.560Z,9.80
2023-03-02T08:55:05.918Z,9.92
2023-03-02T08:57:34.858Z,10.15
2023-03-02T09:00:08.660Z,10.41
2023-03-02T09:02:36.551Z,10.29
2023-03-02T09:05:04.425Z,10.49
2023-03-02T09:07:32.116Z,10.74
2023-03-02T09:10:01.208Z,10.80
2023-03-02T09:12:31.839Z,10.86
2023-03-02T09:14:59.628Z,11.11
2023-03-02T09:17:27.496Z,11.30
2023-03-02T09:19:55.081Z,11.59
2023-03-02T09:22:22.841Z,11.19
2023-03-02T09:24:50.861Z,11.03
2023-03-02T09:27:18.548Z,11.47
2023-03-02T09:29:46.216Z,11.77
2023-03-02T09:32:16.144Z,11.80
2023-03-02T09:34:43.913Z,12.27
2023-03-02T09:37:11.484Z,12.54
2023-03-02T09:39:39.882Z,12.25
2023-03-02T09:42:16.295Z,11.96
2023-03-02T09:45:14.573Z,11.56
2023-03-02T09:48:10.917Z,11.52
2023-03-02T09:50:45.847Z,11.40
2023-03-02T09:53:38.394Z,11.62
2023-03-02T09:56:14.862Z,11.89
2023-03-02T09:58:49.548Z,11.70
2023-03-02T10:01:30.132Z,11.75
2023-03-02T10:04:08.316Z,11.53
2023-03-02T10:06:36.056Z,11.42
2023-03-02T10:09:03.966Z,11.85
2023-03-02T10:12:32.954Z,11.92
2023-03-02T10:15:19.230Z,12.68
2023-03-02T10:17:53.063Z,12.61
2023-03-02T10:20:34.148Z,12.90
2023-03-02T10:23:28.650Z,13.04
2023-03-02T10:26:11.418Z,12.58
2023-03-02T10:29:10.888Z,12.70
2023-03-02T10:31:41.311Z,12.93
2023-03-02T10:34:11.666Z,12.83
2023-03-02T10:36:43.203Z,13.16
2023-03-02T10:39:15.365Z,13.12
2023-03-02T10:42:06.891Z,13.23
2023-03-02T10:44:39.701Z,12.97
2023-03-02T10:47:08.663Z,12.73
2023-03-02T10:49:42.030Z,12.75
2023-03-02T10:52:15.286Z,13.13
2023-03-02T10:54:43.005Z,12.91
2023-03-02T10:57:23.064Z,12.93
2023-03-02T10:59:52.789Z,12.93
2023-03-02T11:02:27.618Z,12.88
2023-03-02T11:04:57.349Z,12.82
2023-03-02T11:07:28.617Z,12.99
2023-03-02T11:10:02.014Z,12.98
2023-03-02T11:12:32.004Z,13.21
2023-03-02T11:15:19.658Z,13.02
2023-03-02T11:18:29.101Z,12.72
2023-03-02T11:21:04.603Z,13.04
2023-03-02T11:24:06.108Z,13.15
2023-03-02T11:26:45.119Z,13.18
2023-03-02T11:29:39.048Z,13.07
2023-03-02T11:32:25.636Z,13.25
2023-03-02T11:35:08.972Z,13.10
2023-03-02T11:37:42.729Z,13.24
2023-03-02T11:40:23.884Z,12.96
2023-03-02T11:42:52.891Z,13.08
2023-03-02T11:45:24.276Z,13.18
2023-03-02T11:48:03.303Z,13.07
2023-03-02T11:50:37.642Z,11.98
2023-03-02T11:53:12.109Z,12.89
2023-03-02T11:55:50.733Z,13.16
2023-03-02T11:58:21.538Z,13.00
2023-03-02T12:00:51.150Z,12.68
2023-03-02T12:03:22.477Z,12.95
2023-03-02T12:05:52.845Z,12.98
2023-03-02T12:08:20.727Z,12.76
2023-03-02T12:11:25.740Z,12.73
2023-03-02T12:14:04.752Z,12.72
2023-03-02T12:16:36.157Z,12.41
2023-03-02T12:19:16.507Z,12.41
2023-03-02T12:21:57.224Z,12.66
2023-03-02T12:24:28.450Z,12.84
2023-03-02T12:27:03.745Z,12.81
2023-03-02T12:29:44.276Z,12.94
2023-03-02T12:32:26.265Z,12.68
2023-03-02T12:35:02.876Z,12.58
2023-03-02T12:37:49.587Z,12.69
2023-03-02T12:40:35.756Z,12.59
2023-03-02T12:43:24.657Z,12.60
2023-03-02T12:46:14.390Z,12.90
2023-03-02T12:48:45.808Z,12.48
2023-03-02T12:51:23.754Z,12.48
2023-03-02T12:54:22.476Z,12.49
2023-03-02T12:56:50.960Z,12.63
2023-03-02T12:59:28.896Z,12.55
2023-03-02T13:02:16.415Z,12.75
2023-03-02T13:04:44.876Z,12.66
2023-03-02T13:07:19.557Z,12.68
2023-03-02T13:09:57.234Z,12.72
2023-03-02T13:12:29.501Z,12.63
2023-03-02T13:14:59.240Z,12.56
2023-03-02T13:17:32.637Z,12.13
2023-03-02T13:20:03.612Z,12.68
2023-03-02T13:22:32.188Z,12.48
2023-03-02T13:25:08.206Z,12.48
2023-03-02T13:27:36.167Z,12.91
2023-03-02T13:30:28.596Z,12.89
2023-03-02T13:33:01.701Z,13.13
2023-03-02T13:35:32.959Z,13.16
2023-03-02T13:38:03.228Z,13.65
2023-03-02T13:40:37.793Z,13.16
2023-03-02T13:43:23.908Z,13.45
2023-03-02T13:46:07.807Z,12.66
2023-03-02T13:48:35.784Z,13.29
2023-03-02T13:51:14.216Z,13.11
2023-03-02T13:53:53.384Z,12.94
2023-03-02T13:56:29.524Z,13.06
2023-03-02T13:58:57.800Z,13.52
2023-03-02T14:01:26.429Z,13.25
2023-03-02T14:03:57.310Z,13.44
2023-03-02T14:06:28.860Z,13.80
2023-03-02T14:08:56.849Z,14.10
2023-03-02T14:11:24.824Z,14.12
2023-03-02T14:13:54.606Z,13.95
2023-03-02T14:16:24.227Z,13.65
2023-03-02T14:18:56.294Z,13.95
2023-03-02T14:21:25.782Z,14.02
2023-03-02T14:23:54.312Z,14.50
2023-03-02T14:26:31.300Z,14.30
2023-03-02T14:29:26.098Z,14.56
2023-03-02T14:31:55.666Z,14.24
2023-03-02T14:34:23.841Z,13.62
2023-03-02T14:36:56.219Z,14.13
2023-03-02T14:39:37.635Z,14.61
2023-03-02T14:42:10.832Z,14.55
2023-03-02T14:44:38.682Z,14.52
2023-03-02T14:47:07.232Z,14.17
2023-03-02T14:49:35.060Z,14.06
2023-03-02T14:52:12.108Z,14.10
2023-03-02T14:55:01.974Z,14.45
2023-03-02T14:57:35.410Z,14.28
2023-03-02T15:00:05.132Z,14.58
2023-03-02T15:02:36.110Z,14.20
2023-03-02T15:05:03.964Z,13.41
2023-03-02T15:07:31.730Z,13.29
2023-03-02T15:10:02.262Z,13.94
2023-03-02T15:12:30.143Z,13.91
2023-03-02T15:14:57.686Z,13.89
2023-03-02T15:17:25.611Z,14.09
2023-03-02T15:19:53.747Z,13.99
2023-03-02T15:22:21.385Z,13.08
2023-03-02T15:24:49.345Z,13.27
2023-03-02T15:27:17.405Z,13.79
2023-03-02T15:29:47.215Z,13.68
2023-03-02T15:32:15.941Z,13.53
2023-03-02T15:34:43.920Z,13.73
2023-03-02T15:37:12.743Z,13.60
2023-03-02T15:39:44.525Z,13.30
2023-03-02T15:42:13.896Z,13.53
2023-03-02T15:44:42.282Z,13.48
2023-03-02T15:47:11.119Z,13.00
2023-03-02T15:49:38.882Z,13.25
2023-03-02T15:52:06.728Z,13.21
2023-03-02T15:54:34.281Z,13.36
2023-03-02T15:57:01.913Z,13.10
2023-03-02T15:59:31.249Z,13.16
2023-03-02T16:02:02.139Z,12.72
2023-03-02T16:04:32.005Z,12.75
2023-03-02T16:07:00.120Z,12.70
2023-03-02T16:09:29.051Z,12.58
2023-03-02T16:11:57.529Z,12.61
2023-03-02T16:14:25.230Z,12.64
2023-03-02T16:16:53.195Z,12.66
2023-03-02T16:19:21.516Z,12.56
2023-03-02T16:21:49.402Z,12.75
2023-03-02T16:24:17.409Z,12.78
2023-03-02T16:26:45.765Z,12.64
2023-03-02T16:29:14.006Z,12.72
2023-03-02T16:31:45.218Z,12.67
2023-03-02T16:34:14.107Z,12.68
2023-03-02T16:36:42.482Z,12.53
2023-03-02T16:39:12.080Z,12.48
2023-03-02T16:41:42.423Z,12.66
2023-03-02T16:44:11.722Z,12.42
2023-03-02T16:46:40.280Z,12.27
2023-03-02T16:49:08.954Z,12.34
2023-03-02T16:51:37.373Z,12.20
2023-03-02T16:54:05.441Z,12.07
2023-03-02T16:56:33.570Z,12.06
2023-03-02T16:59:01.507Z,12.05
2023-03-02T17:01:29.548Z,12.01
2023-03-02T17:03:57.804Z,12.10
2023-03-02T17:06:25.746Z,11.95
2023-03-02T17:08:54.090Z,11.68
2023-03-02T17:11:23.116Z,11.45
2023-03-02T17:13:52.585Z,11.56
2023-03-02T17:16:20.817Z,11.57
2023-03-02T17:18:48.859Z,11.20
2023-03-02T17:21:17.237Z,11.09
2023-03-02T17:23:48.077Z,10.93
2023-03-02T17:26:17.034Z,10.90
2023-03-02T17:28:45.077Z,10.89
2023-03-02T17:31:13.512Z,11.17
2023-03-02T17:33:41.645Z,10.98
2023-03-02T17:36:12.148Z,10.69
2023-03-02T17:38:40.792Z,10.77
2023-03-02T17:41:10.823Z,10.42
2023-03-02T17:43:41.477Z,10.39
2023-03-02T17:46:14.795Z,10.66
2023-03-02T17:48:43.526Z,10.66
2023-03-02T17:51:14.792Z,10.65
2023-03-02T17:53:48.185Z,10.50
2023-03-02T17:56:19.186Z,10.48
2023-03-02T17:58:47.317Z,10.34
2023-03-02T18:01:15.942Z,10.39
2023-03-02T18:03:45.240Z,10.18
2023-03-02T18:06:14.134Z,9.94
2023-03-02T18:08:41.677Z,9.84
2023-03-02T18:11:10.089Z,9.65
2023-03-02T18:13:38.081Z,9.15
2023-03-02T18:16:06.562Z,9.20
2023-03-02T18:18:34.836Z,9.52
2023-03-02T18:21:02.992Z,9.50
2023-03-02T18:23:31.478Z,9.65
2023-03-02T18:25:59.496Z,9.57
2023-03-02T18:28:27.482Z,9.50
2023-03-02T18:30:55.450Z,9.55
2023-03-02T18:33:23.551Z,9.39
2023-03-02T18:35:52.265Z,9.35
2023-03-02T18:38:20.236Z,9.04
2023-03-02T18:40:48.407Z,9.13
2023-03-02T18:43:16.765Z,9.23
2023-03-02T18:45:44.356Z,9.09
2023-03-02T18:48:12.731Z,9.11
2023-03-02T18:50:40.468Z,8.96
2023-03-02T18:53:08.703Z,9.05
2023-03-02T18:55:37.264Z,8.94
2023-03-02T18:58:07.455Z,9.00
2023-03-02T19:00:36.294Z,8.78
2023-03-02T19:03:04.417Z,8.80
2023-03-02T19:05:32.441Z,8.79
2023-03-02T19:08:00.439Z,8.92
2023-03-02T19:10:29.130Z,8.90
2023-03-02T19:12:56.741Z,8.75
2023-03-02T19:15:25.007Z,8.66
2023-03-02T19:17:53.552Z,8.69
2023-03-02T19:20:22.217Z,8.73
2023-03-02T19:22:50.492Z,8.73
2023-03-02T19:25:18.718Z,8.70
2023-03-02T19:27:48.199Z,8.66
2023-03-02T19:30:24.847Z,8.47
2023-03-02T19:32:54.281Z,8.35
2023-03-02T19:35:25.214Z,8.03
2023-03-02T19:37:53.608Z,8.23
2023-03-02T19:40:24.788Z,8.09
2023-03-02T19:42:53.222Z,8.09
2023-03-02T19:45:29.973Z,8.06
2023-03-02T19:47:59.972Z,7.98
2023-03-02T19:50:29.555Z,8.00
2023-03-02T19:52:59.096Z,8.08
2023-03-02T19:55:27.324Z,7.86
2023-03-02T19:57:59.631Z,7.65
2023-03-02T20:00:31.759Z,7.62
2023-03-02T20:03:00.557Z,7.24
2023-03-02T20:05:28.572Z,7.23
2023-03-02T20:07:56.700Z,7.19
2023-03-02T20:10:31.147Z,7.36
2023-03-02T20:13:00.714Z,7.15
2023-03-02T20:15:31.053Z,7.41
2023-03-02T20:18:02.485Z,7.14
2023-03-02T20:20:33.094Z,7.43
2023-03-02T20:23:01.100Z,7.45
2023-03-02T20:25:29.671Z,7.40
2023-03-02T20:27:58.867Z,7.32
2023-03-02T20:30:31.637Z,7.46
2023-03-02T20:33:00.890Z,7.36
2023-03-02T20:35:32.780Z,7.46
2023-03-02T20:38:05.467Z,7.25
2023-03-02T20:40:34.225Z,7.43
2023-03-02T20:43:02.454Z,7.42
2023-03-02T20:45:30.436Z,7.42
2023-03-02T20:47:59.125Z,7.36
2023-03-02T20:50:30.807Z,7.43
2023-03-02T20:52:59.486Z,7.12
2023-03-02T20:55:28.725Z,6.63
2023-03-02T20:57:57.279Z,6.39
2023-03-02T21:00:28.110Z,6.38
2023-03-02T21:02:57.260Z,6.52
2023-03-02T21:05:26.969Z,6.51
2023-03-02T21:07:55.507Z,6.17
2023-03-02T21:10:29.856Z,6.06
2023-03-02T21:12:57.811Z,6.38
2023-03-02T21:15:27.260Z,6.48
2023-03-02T21:17:55.900Z,6.64
2023-03-02T21:20:31.328Z,6.68
2023-03-02T21:22:59.840Z,6.77
2023-03-02T21:25:28.333Z,6.69
2023-03-02T21:27:57.238Z,6.32
2023-03-02T21:30:35.738Z,6.39
2023-03-02T21:33:03.612Z,6.17
2023-03-02T21:35:31.703Z,6.47
2023-03-02T21:38:03.770Z,6.46
2023-03-02T21:40:45.890Z,6.06
2023-03-02T21:43:16.235Z,5.92
2023-03-02T21:45:44.497Z,6.01
2023-03-02T21:48:13.926Z,5.95
2023-03-02T21:50:42.222Z,5.94
2023-03-02T21:53:10.250Z,6.28
2023-03-02T21:55:38.103Z,6.31
2023-03-02T21:58:06.211Z,6.34
2023-03-02T22:00:37.522Z,6.12
2023-03-02T22:03:06.800Z,5.83
2023-03-02T22:05:34.493Z,5.78
2023-03-02T22:08:02.194Z,5.80
2023-03-02T22:10:46.098Z,5.94
2023-03-02T22:13:14.031Z,5.58
2023-03-02T22:15:42.139Z,5.74
2023-03-02T22:18:15.395Z,5.80
2023-03-02T22:20:47.359Z,5.76
2023-03-02T22:23:16.227Z,6.00
2023-03-02T22:25:44.441Z,6.15
2023-03-02T22:28:18.484Z,6.17
2023-03-02T22:30:48.016Z,6.24
2023-03-02T22:33:25.212Z,6.21
2023-03-02T22:35:59.854Z,6.10
2023-03-02T22:38:30.183Z,6.07
2023-03-02T22:40:58.257Z,6.09
2023-03-02T22:43:30.971Z,6.20
2023-03-02T22:46:15.890Z,6.16
2023-03-02T22:48:46.286Z,6.18
2023-03-02T22:51:24.262Z,6.14
2023-03-02T22:53:54.360Z,6.23
2023-03-02T22:56:52.731Z,5.99
2023-03-02T22:59:24.498Z,6.03
2023-03-02T23:02:08.151Z,5.43
2023-03-02T23:04:37.997Z,5.75
2023-03-02T23:07:19.400Z,5.79
2023-03-02T23:09:47.952Z,5.99
2023-03-02T23:12:22.030Z,5.51
2023-03-02T23:14:51.201Z,5.99
2023-03-02T23:17:34.218Z,6.02
2023-03-02T23:20:03.079Z,5.54
2023-03-02T23:22:31.629Z,5.52
2023-03-02T23:24:59.432Z,5.43
2023-03-02T23:27:27.844Z,5.72
2023-03-02T23:29:55.876Z,5.64
2023-03-02T23:32:23.642Z,5.93
2023-03-02T23:34:51.373Z,6.11
2023-03-02T23:37:19.354Z,5.80
2023-03-02T23:39:46.908Z,5.81
2023-03-02T23:42:14.735Z,6.00
2023-03-02T23:44:42.643Z,5.94
2023-03-02T23:47:10.179Z,6.09
2023-03-02T23:49:37.859Z,6.13
2023-03-02T23:52:06.093Z,5.88
2023-03-02T23:54:33.877Z,5.77
2023-03-02T23:57:01.513Z,5.93
2023-03-02T23:59:29.500Z,6.14
